createdAt,value
2023-05-09T00:01:31.652Z,101038.56
2023-05-09T00:03:59.753Z,101043.48
2023-05-09T00:06:28.051Z,101042.67
2023-05-09T00:08:55.934Z,101042.81
2023-05-09T00:11:23.042Z,101043.16
2023-05-09T00:13:50.928Z,101045.25
2023-05-09T00:16:18.299Z,101043.06
2023-05-09T00:18:45.611Z,101043.92
2023-05-09T00:21:12.759Z,101047.64
2023-05-09T00:23:39.965Z,101047.99
2023-05-09T00:26:06.975Z,101046.36
2023-05-09T00:28:34.240Z,101050.51
2023-05-09T00:31:01.354Z,101050.41
2023-05-09T00:33:28.508Z,101054.19
2023-05-09T00:35:55.714Z,101053.51
2023-05-09T00:38:23.379Z,101054.99
2023-05-09T00:40:50.564Z,101056.80
2023-05-09T00:43:18.169Z,101055.60
2023-05-09T00:45:45.918Z,101054.72
2023-05-09T00:48:13.370Z,101053.90
2023-05-09T00:50:40.448Z,101057.98
2023-05-09T00:53:07.908Z,101055.99
2023-05-09T00:55:35.108Z,101057.16
2023-05-09T00:58:03.562Z,101053.08
2023-05-09T01:00:30.734Z,101054.08
2023-05-09T01:02:58.006Z,101055.85
2023-05-09T01:05:27.449Z,101055.52
2023-05-09T01:07:57.500Z,101055.15
2023-05-09T01:10:44.075Z,101054.86
2023-05-09T01:13:22.291Z,101056.55
2023-05-09T01:15:55.670Z,101055.27
2023-05-09T01:18:31.881Z,101056.27
2023-05-09T01:21:17.366Z,101054.05
2023-05-09T01:23:44.440Z,101049.89
2023-05-09T01:27:00.011Z,101045.41
2023-05-09T01:30:00.084Z,101051.55
2023-05-09T01:32:28.467Z,101052.05
2023-05-09T01:34:56.289Z,101053.42
2023-05-09T01:37:34.268Z,101052.66
2023-05-09T01:40:10.304Z,101054.90
2023-05-09T01:42:58.504Z,101057.75
2023-05-09T01:45:26.437Z,101057.61
2023-05-09T01:47:53.819Z,101062.52
2023-05-09T01:50:20.944Z,101062.06
2023-05-09T01:52:50.010Z,101065.21
2023-05-09T01:55:17.313Z,101062.19
2023-05-09T01:57:45.487Z,101063.64
2023-05-09T02:00:13.959Z,101061.67
2023-05-09T02:02:41.337Z,101058.19
2023-05-09T02:05:10.248Z,101056.95
2023-05-09T02:07:37.761Z,101057.02
2023-05-09T02:10:05.348Z,101058.23
2023-05-09T02:12:32.472Z,101058.16
2023-05-09T02:14:59.579Z,101057.25
2023-05-09T02:17:27.093Z,101061.95
2023-05-09T02:19:54.319Z,101063.40
2023-05-09T02:22:21.576Z,101064.66
2023-05-09T02:24:48.618Z,101069.33
2023-05-09T02:27:15.775Z,101066.44
2023-05-09T02:29:46.355Z,101063.42
2023-05-09T02:32:19.578Z,101066.30
2023-05-09T02:34:47.169Z,101069.45
2023-05-09T02:37:14.916Z,101072.27
2023-05-09T02:39:42.006Z,101073.92
2023-05-09T02:42:10.758Z,101079.70
2023-05-09T02:44:39.096Z,101080.19
2023-05-09T02:47:07.256Z,101079.92
2023-05-09T02:49:34.453Z,101079.72
2023-05-09T02:52:02.631Z,101083.52
2023-05-09T02:54:29.886Z,101077.98
2023-05-09T02:56:57.046Z,101075.41
2023-05-09T02:59:24.151Z,101073.16
2023-05-09T03:01:52.121Z,101074.94
2023-05-09T03:04:19.981Z,101082.92
2023-05-09T03:06:47.390Z,101079.86
2023-05-09T03:09:14.525Z,101078.45
2023-05-09T03:11:41.791Z,101079.89
2023-05-09T03:14:09.051Z,101086.18
2023-05-09T03:16:36.136Z,101084.60
2023-05-09T03:19:03.971Z,101085.92
2023-05-09T03:21:32.255Z,101088.15
2023-05-09T03:24:00.034Z,101093.36
2023-05-09T03:26:27.131Z,101096.92
2023-05-09T03:28:54.399Z,101101.67
2023-05-09T03:31:21.639Z,101101.10
2023-05-09T03:33:48.793Z,101100.17
2023-05-09T03:36:16.201Z,101102.13
2023-05-09T03:38:43.711Z,101102.84
2023-05-09T03:41:10.855Z,101104.66
2023-05-09T03:43:38.326Z,101105.69
2023-05-09T03:46:05.387Z,101108.30
2023-05-09T03:48:32.679Z,101112.06
2023-05-09T03:50:59.862Z,101112.16
2023-05-09T03:53:28.151Z,101113.05
2023-05-09T03:55:55.600Z,101111.02
2023-05-09T03:58:23.067Z,101110.37
2023-05-09T04:00:50.741Z,101112.42
2023-05-09T04:03:20.946Z,101113.96
2023-05-09T04:05:49.117Z,101118.10
2023-05-09T04:08:29.873Z,101117.58
2023-05-09T04:10:57.338Z,101116.73
2023-05-09T04:13:24.551Z,101118.92
2023-05-09T04:15:52.255Z,101114.59
2023-05-09T04:18:19.617Z,101115.04
2023-05-09T04:20:46.710Z,101117.11
2023-05-09T04:23:14.325Z,101118.04
2023-05-09T04:25:42.717Z,101118.27
2023-05-09T04:28:09.757Z,101116.23
2023-05-09T04:30:38.224Z,101120.08
2023-05-09T04:33:05.865Z,101116.13
2023-05-09T04:35:33.253Z,101116.92
2023-05-09T04:38:00.428Z,101117.35
2023-05-09T04:40:27.646Z,101115.65
2023-05-09T04:42:59.197Z,101117.63
2023-05-09T04:45:28.295Z,101120.97
2023-05-09T04:47:55.692Z,101116.00
2023-05-09T04:50:23.198Z,101114.45
2023-05-09T04:52:50.566Z,101112.55
2023-05-09T04:55:17.813Z,101116.61
2023-05-09T04:57:47.014Z,101115.23
2023-05-09T05:00:16.790Z,101112.55
2023-05-09T05:02:44.318Z,101116.80
2023-05-09T05:05:12.713Z,101118.47
2023-05-09T05:07:42.882Z,101116.55
2023-05-09T05:10:11.298Z,101116.35
2023-05-09T05:12:39.437Z,101115.41
2023-05-09T05:15:08.767Z,101112.86
2023-05-09T05:17:35.928Z,101111.85
2023-05-09T05:20:06.710Z,101112.80
2023-05-09T05:22:34.077Z,101108.16
2023-05-09T05:25:03.612Z,101105.82
2023-05-09T05:27:31.961Z,101105.55
2023-05-09T05:29:59.211Z,101110.52
2023-05-09T05:32:26.319Z,101110.22
2023-05-09T05:34:53.714Z,101108.73
2023-05-09T05:37:20.865Z,101106.40
2023-05-09T05:39:48.118Z,101103.15
2023-05-09T05:42:15.114Z,101100.95
2023-05-09T05:44:42.375Z,101103.35
2023-05-09T05:47:09.467Z,101108.11
2023-05-09T05:49:37.747Z,101109.41
2023-05-09T05:52:05.007Z,101108.89
2023-05-09T05:54:32.194Z,101109.84
2023-05-09T05:56:59.292Z,101110.02
2023-05-09T05:59:26.546Z,101111.19
2023-05-09T06:01:53.927Z,101109.19
2023-05-09T06:04:21.522Z,101110.86
2023-05-09T06:06:48.817Z,101109.77
2023-05-09T06:09:15.962Z,101113.80
2023-05-09T06:11:43.012Z,101111.62
2023-05-09T06:14:10.089Z,101114.61
2023-05-09T06:16:37.341Z,101111.42
2023-05-09T06:19:04.457Z,101111.43
2023-05-09T06:21:31.606Z,101116.12
2023-05-09T06:24:09.787Z,101111.81
2023-05-09T06:26:41.438Z,101116.75
2023-05-09T06:29:08.533Z,101116.17
2023-05-09T06:31:39.370Z,101120.07
2023-05-09T06:34:06.651Z,101113.71
2023-05-09T06:36:34.206Z,101114.85
2023-05-09T06:39:01.457Z,101116.72
2023-05-09T06:41:28.581Z,101114.65
2023-05-09T06:43:55.649Z,101114.56
2023-05-09T06:46:22.690Z,101113.77
2023-05-09T06:48:49.921Z,101110.80
2023-05-09T06:51:17.174Z,101111.20
2023-05-09T06:53:44.244Z,101112.52
2023-05-09T06:56:12.021Z,101109.47
2023-05-09T06:58:39.063Z,101109.89
2023-05-09T07:01:06.201Z,101109.98
2023-05-09T07:03:33.439Z,101114.04
2023-05-09T07:06:00.501Z,101110.33
2023-05-09T07:08:27.491Z,101112.73
2023-05-09T07:10:54.590Z,101112.45
2023-05-09T07:13:21.736Z,101110.73
2023-05-09T07:15:48.945Z,101113.00
2023-05-09T07:18:16.148Z,101111.19
2023-05-09T07:20:43.258Z,101105.84
2023-05-09T07:23:10.647Z,101106.11
2023-05-09T07:25:37.999Z,101105.42
2023-05-09T07:28:05.466Z,101104.34
2023-05-09T07:30:32.689Z,101102.99
2023-05-09T07:32:59.934Z,101099.13
2023-05-09T07:35:27.127Z,101093.15
2023-05-09T07:37:54.271Z,101091.34
2023-05-09T07:40:21.313Z,101084.03
2023-05-09T07:42:50.000Z,101082.17
2023-05-09T07:45:18.780Z,101073.13
2023-05-09T07:47:47.102Z,101063.91
2023-05-09T07:50:14.285Z,101065.81
2023-05-09T07:52:41.348Z,101056.52
2023-05-09T07:55:09.429Z,101055.42
2023-05-09T07:57:36.467Z,101058.65
2023-05-09T08:00:04.851Z,101054.62
2023-05-09T08:02:40.898Z,101052.48
2023-05-09T08:05:08.835Z,101055.07
2023-05-09T08:07:35.921Z,101048.05
2023-05-09T08:10:03.538Z,101041.27
2023-05-09T08:12:30.597Z,101048.40
2023-05-09T08:14:57.607Z,101041.29
2023-05-09T08:17:24.771Z,101038.30
2023-05-09T08:19:51.896Z,101032.17
2023-05-09T08:22:19.429Z,101036.33
2023-05-09T08:24:47.229Z,101028.52
2023-05-09T08:27:15.101Z,101025.91
2023-05-09T08:29:42.180Z,101021.15
2023-05-09T08:32:09.599Z,101021.88
2023-05-09T08:34:36.732Z,101019.92
2023-05-09T08:37:04.334Z,101018.13
2023-05-09T08:39:31.789Z,101016.79
2023-05-09T08:41:59.718Z,101014.48
2023-05-09T08:44:28.069Z,101013.86
2023-05-09T08:47:02.569Z,101012.79
2023-05-09T08:49:29.873Z,101001.95
2023-05-09T08:51:57.115Z,101004.99
2023-05-09T08:54:24.754Z,101001.18
2023-05-09T08:56:51.934Z,101007.22
2023-05-09T08:59:19.594Z,101011.35
2023-05-09T09:01:46.796Z,101004.91
2023-05-09T09:04:14.000Z,101002.25
2023-05-09T09:06:41.145Z,101005.13
2023-05-09T09:09:09.220Z,101005.56
2023-05-09T09:11:36.890Z,100997.98
2023-05-09T09:14:16.971Z,100995.05
2023-05-09T09:16:45.058Z,100986.14
2023-05-09T09:19:13.407Z,100985.05
2023-05-09T09:21:45.175Z,100980.85
2023-05-09T09:24:15.368Z,100977.67
2023-05-09T09:26:46.429Z,100979.09
2023-05-09T09:29:13.787Z,100978.49
2023-05-09T09:31:41.342Z,100975.17
2023-05-09T09:34:08.592Z,100968.21
2023-05-09T09:36:38.619Z,100964.81
2023-05-09T09:39:05.976Z,100973.13
2023-05-09T09:41:37.974Z,100963.11
2023-05-09T09:44:09.498Z,100968.48
2023-05-09T09:46:42.457Z,100972.77
2023-05-09T09:49:10.830Z,100971.98
2023-05-09T09:51:37.992Z,100970.10
2023-05-09T09:54:07.826Z,100967.91
2023-05-09T09:56:42.720Z,100967.05
2023-05-09T09:59:11.699Z,100958.30
2023-05-09T10:01:58.989Z,100958.25
2023-05-09T10:04:28.441Z,100961.28
2023-05-09T10:06:57.127Z,100966.81
2023-05-09T10:09:24.587Z,100961.02
2023-05-09T10:11:55.014Z,100962.20
2023-05-09T10:14:26.180Z,100968.64
2023-05-09T10:16:56.816Z,100967.90
2023-05-09T10:19:26.748Z,100962.73
2023-05-09T10:21:55.604Z,100962.45
2023-05-09T10:24:29.089Z,100964.56
2023-05-09T10:26:59.727Z,100966.90
2023-05-09T10:29:26.816Z,100964.52
2023-05-09T10:31:55.544Z,100958.77
2023-05-09T10:34:22.716Z,100963.24
2023-05-09T10:36:49.746Z,100963.07
2023-05-09T10:39:16.819Z,100959.65
2023-05-09T10:41:43.912Z,100958.19
2023-05-09T10:44:10.900Z,100966.26
2023-05-09T10:46:38.161Z,100965.25
2023-05-09T10:49:05.285Z,100967.98
2023-05-09T10:51:33.264Z,100967.70
2023-05-09T10:54:00.318Z,100965.29
2023-05-09T10:56:31.917Z,100964.65
2023-05-09T10:58:59.945Z,100965.48
2023-05-09T11:01:35.038Z,100970.88
2023-05-09T11:04:08.995Z,100967.06
2023-05-09T11:06:49.465Z,100971.34
2023-05-09T11:09:33.773Z,100964.48
2023-05-09T11:12:05.004Z,100968.27
2023-05-09T11:14:41.785Z,100956.79
2023-05-09T11:17:30.699Z,100959.41
2023-05-09T11:19:59.720Z,100958.23
2023-05-09T11:22:28.819Z,100951.30
2023-05-09T11:25:07.581Z,100944.59
2023-05-09T11:27:52.213Z,100944.73
2023-05-09T11:30:20.121Z,100948.70
2023-05-09T11:32:59.146Z,100942.14
2023-05-09T11:35:29.518Z,100937.45
2023-05-09T11:38:00.512Z,100943.69
2023-05-09T11:40:29.113Z,100932.21
2023-05-09T11:42:58.367Z,100933.19
2023-05-09T11:45:31.041Z,100926.52
2023-05-09T11:47:58.599Z,100927.75
2023-05-09T11:50:25.862Z,100923.38
2023-05-09T11:52:53.620Z,100917.28
2023-05-09T11:55:25.746Z,100919.05
2023-05-09T11:57:54.138Z,100918.98
2023-05-09T12:00:25.118Z,100915.16
2023-05-09T12:02:52.991Z,100913.44
2023-05-09T12:05:21.702Z,100914.85
2023-05-09T12:07:49.147Z,100918.11
2023-05-09T12:10:20.186Z,100912.05
2023-05-09T12:12:51.177Z,100916.30
2023-05-09T12:15:18.882Z,100910.86
2023-05-09T12:17:48.168Z,100907.19
2023-05-09T12:20:16.874Z,100912.51
2023-05-09T12:22:44.229Z,100912.25
2023-05-09T12:25:12.390Z,100906.92
2023-05-09T12:27:40.616Z,100911.70
2023-05-09T12:30:10.539Z,100908.91
2023-05-09T12:32:39.689Z,100908.27
2023-05-09T12:35:09.089Z,100913.70
2023-05-09T12:37:36.141Z,100914.20
2023-05-09T12:40:04.321Z,100917.67
2023-05-09T12:42:32.594Z,100915.66
2023-05-09T12:44:59.741Z,100911.80
2023-05-09T12:47:29.353Z,100911.78
2023-05-09T12:50:03.263Z,100916.77
2023-05-09T12:52:34.614Z,100917.98
2023-05-09T12:55:09.118Z,100914.78
2023-05-09T12:57:36.375Z,100920.12
2023-05-09T13:00:05.115Z,100919.34
2023-05-09T13:02:40.175Z,100913.88
2023-05-09T13:05:16.298Z,100914.14
2023-05-09T13:07:56.861Z,100911.61
2023-05-09T13:10:26.143Z,100917.38
2023-05-09T13:12:53.601Z,100915.55
2023-05-09T13:15:21.799Z,100916.85
2023-05-09T13:17:49.695Z,100912.95
2023-05-09T13:20:17.589Z,100913.42
2023-05-09T13:22:45.659Z,100913.88
2023-05-09T13:25:13.223Z,100911.34
2023-05-09T13:27:40.372Z,100913.79
2023-05-09T13:30:08.626Z,100916.34
2023-05-09T13:32:36.730Z,100914.44
2023-05-09T13:35:07.250Z,100919.05
2023-05-09T13:37:35.116Z,100915.89
2023-05-09T13:40:03.096Z,100913.73
2023-05-09T13:42:30.161Z,100913.70
2023-05-09T13:44:57.285Z,100913.86
2023-05-09T13:47:24.586Z,100916.77
2023-05-09T13:49:52.516Z,100914.43
2023-05-09T13:52:19.978Z,100918.61
2023-05-09T13:54:47.434Z,100916.71
2023-05-09T13:57:14.483Z,100916.61
2023-05-09T13:59:42.593Z,100915.51
2023-05-09T14:02:11.252Z,100915.02
2023-05-09T14:04:38.926Z,100912.16
2023-05-09T14:07:06.034Z,100908.09
2023-05-09T14:09:40.075Z,100903.77
2023-05-09T14:12:07.418Z,100904.58
2023-05-09T14:14:35.516Z,100904.61
2023-05-09T14:17:03.040Z,100908.38
2023-05-09T14:19:30.530Z,100908.11
2023-05-09T14:21:57.636Z,100905.27
2023-05-09T14:24:24.687Z,100902.94
2023-05-09T14:26:51.942Z,100905.17
2023-05-09T14:29:19.093Z,100898.70
2023-05-09T14:31:46.232Z,100897.86
2023-05-09T14:34:13.286Z,100898.05
2023-05-09T14:36:40.352Z,100901.11
2023-05-09T14:39:07.793Z,100902.90
2023-05-09T14:41:34.839Z,100902.57
2023-05-09T14:44:01.989Z,100907.96
2023-05-09T14:46:29.050Z,100910.75
2023-05-09T14:48:57.832Z,100909.35
2023-05-09T14:51:24.975Z,100908.84
2023-05-09T14:53:53.622Z,100913.77
2023-05-09T14:56:20.752Z,100911.35
2023-05-09T14:58:47.887Z,100911.63
2023-05-09T15:01:16.181Z,100910.86
2023-05-09T15:03:43.418Z,100912.04
2023-05-09T15:06:10.644Z,100907.48
2023-05-09T15:08:37.864Z,100904.39
2023-05-09T15:11:05.050Z,100909.45
2023-05-09T15:13:32.235Z,100910.36
2023-05-09T15:15:59.572Z,100911.61
2023-05-09T15:18:28.878Z,100920.55
2023-05-09T15:20:56.094Z,100915.45
2023-05-09T15:23:23.284Z,100916.77
2023-05-09T15:25:50.500Z,100921.69
2023-05-09T15:28:17.969Z,100923.84
2023-05-09T15:30:45.536Z,100922.63
2023-05-09T15:33:13.594Z,100915.22
2023-05-09T15:35:41.283Z,100908.50
2023-05-09T15:38:12.523Z,100906.44
2023-05-09T15:40:40.772Z,100908.96
2023-05-09T15:43:08.592Z,100914.26
2023-05-09T15:45:45.446Z,100912.02
2023-05-09T15:48:16.175Z,100914.06
2023-05-09T15:50:44.859Z,100908.86
2023-05-09T15:53:11.987Z,100910.48
2023-05-09T15:55:39.346Z,100908.38
2023-05-09T15:58:06.491Z,100908.92
2023-05-09T16:00:33.626Z,100905.31
2023-05-09T16:03:00.904Z,100909.64
2023-05-09T16:05:28.156Z,100908.38
2023-05-09T16:07:55.296Z,100908.58
2023-05-09T16:10:22.445Z,100912.55
2023-05-09T16:12:49.544Z,100911.88
2023-05-09T16:15:16.654Z,100915.63
2023-05-09T16:17:45.336Z,100918.61
2023-05-09T16:20:15.936Z,100916.03
2023-05-09T16:22:43.141Z,100916.71
2023-05-09T16:25:10.769Z,100913.20
2023-05-09T16:27:37.952Z,100917.46
2023-05-09T16:30:05.819Z,100923.39
2023-05-09T16:32:32.900Z,100923.95
2023-05-09T16:35:00.022Z,100925.86
2023-05-09T16:37:29.387Z,100929.81
2023-05-09T16:39:56.692Z,100936.80
2023-05-09T16:42:23.831Z,100932.69
2023-05-09T16:44:50.962Z,100934.72
2023-05-09T16:47:18.140Z,100930.98
2023-05-09T16:49:45.342Z,100927.65
2023-05-09T16:52:12.601Z,100934.77
2023-05-09T16:54:39.807Z,100928.41
2023-05-09T16:57:07.041Z,100926.20
2023-05-09T16:59:34.150Z,100918.83
2023-05-09T17:02:01.823Z,100920.59
2023-05-09T17:04:29.539Z,100930.44
2023-05-09T17:06:56.734Z,100930.06
2023-05-09T17:09:23.977Z,100931.20
2023-05-09T17:11:51.089Z,100936.17
2023-05-09T17:14:18.434Z,100939.88
2023-05-09T17:16:45.621Z,100942.46
2023-05-09T17:19:12.699Z,100931.06
2023-05-09T17:21:41.809Z,100933.41
2023-05-09T17:24:09.588Z,100930.53
2023-05-09T17:26:36.896Z,100936.78
2023-05-09T17:29:04.329Z,100938.55
2023-05-09T17:31:32.377Z,100935.44
2023-05-09T17:33:59.570Z,100941.41
2023-05-09T17:36:26.661Z,100949.20
2023-05-09T17:38:53.729Z,100947.10
2023-05-09T17:41:20.825Z,100956.05
2023-05-09T17:51:58.470Z,100963.64
2023-05-09T17:54:26.102Z,100958.55
2023-05-09T17:56:59.115Z,100960.07
2023-05-09T17:59:26.382Z,100965.25
2023-05-09T18:01:54.563Z,100962.02
2023-05-09T18:04:22.053Z,100955.61
2023-05-09T18:06:49.697Z,100961.57
2023-05-09T18:09:16.828Z,100959.58
2023-05-09T18:11:44.114Z,100962.48
2023-05-09T18:14:11.212Z,100956.33
2023-05-09T18:16:38.474Z,100952.98
2023-05-09T18:19:06.093Z,100945.11
2023-05-09T18:21:33.219Z,100946.56
2023-05-09T18:24:00.436Z,100947.66
2023-05-09T18:26:27.798Z,100963.61
2023-05-09T18:28:54.836Z,100962.48
2023-05-09T18:31:22.657Z,100968.14
2023-05-09T18:33:50.664Z,100951.73
2023-05-09T18:36:18.841Z,100947.70
2023-05-09T18:38:46.842Z,100953.58
2023-05-09T18:41:14.161Z,100953.23
2023-05-09T18:43:46.130Z,100955.14
2023-05-09T18:46:22.854Z,100962.84
2023-05-09T18:48:51.443Z,100956.80
2023-05-09T18:51:19.150Z,100955.98
2023-05-09T18:53:47.574Z,100959.84
2023-05-09T18:56:14.955Z,100957.73
2023-05-09T18:58:42.029Z,100950.98
2023-05-09T19:01:11.873Z,100944.52
2023-05-09T19:03:46.009Z,100947.17
2023-05-09T19:06:13.926Z,100944.72
2023-05-09T19:08:42.131Z,100945.23
2023-05-09T19:11:10.101Z,100938.98
2023-05-09T19:13:38.911Z,100945.16
2023-05-09T19:16:07.311Z,100953.72
2023-05-09T19:18:34.798Z,100958.14
2023-05-09T19:21:02.018Z,100960.38
2023-05-09T19:23:29.296Z,100956.46
2023-05-09T19:25:56.653Z,100952.48
2023-05-09T19:28:24.417Z,100952.39
2023-05-09T19:30:51.741Z,100952.17
2023-05-09T19:33:19.748Z,100953.82
2023-05-09T19:35:47.198Z,100959.11
2023-05-09T19:38:14.350Z,100952.35
2023-05-09T19:40:41.424Z,100952.73
2023-05-09T19:43:08.554Z,100953.76
2023-05-09T19:45:35.698Z,100954.91
2023-05-09T19:48:02.804Z,100953.64
2023-05-09T19:50:31.329Z,100950.47
2023-05-09T19:52:58.599Z,100949.48
2023-05-09T19:55:26.153Z,100954.80
2023-05-09T19:57:53.424Z,100953.13
2023-05-09T20:00:20.772Z,100954.66
2023-05-09T20:02:47.881Z,100949.97
2023-05-09T20:05:15.009Z,100957.18
2023-05-09T20:07:42.633Z,100951.21
2023-05-09T20:10:12.777Z,100949.31
2023-05-09T20:12:40.458Z,100947.16
2023-05-09T20:15:08.706Z,100948.04
2023-05-09T20:17:35.946Z,100951.41
2023-05-09T20:20:04.566Z,100946.95
2023-05-09T20:22:31.758Z,100947.66
2023-05-09T20:24:58.869Z,100945.73
2023-05-09T20:27:26.810Z,100940.42
2023-05-09T20:29:54.123Z,100945.24
2023-05-09T20:32:22.717Z,100941.56
2023-05-09T20:34:49.956Z,100937.54
2023-05-09T20:37:17.115Z,100935.80
2023-05-09T20:39:44.373Z,100935.73
2023-05-09T20:42:11.518Z,100934.02
2023-05-09T20:44:39.660Z,100937.58
2023-05-09T20:47:06.837Z,100936.15
2023-05-09T20:49:34.116Z,100933.98
2023-05-09T20:52:01.377Z,100934.68
2023-05-09T20:54:29.211Z,100931.38
2023-05-09T20:56:56.610Z,100932.31
2023-05-09T20:59:23.766Z,100929.96
2023-05-09T21:01:56.504Z,100929.45
2023-05-09T21:04:23.573Z,100927.10
2023-05-09T21:06:50.770Z,100926.59
2023-05-09T21:09:18.736Z,100925.64
2023-05-09T21:11:46.287Z,100921.78
2023-05-09T21:14:13.369Z,100923.80
2023-05-09T21:16:40.609Z,100923.23
2023-05-09T21:19:09.014Z,100921.14
2023-05-09T21:21:36.157Z,100919.36
2023-05-09T21:24:04.400Z,100920.66
2023-05-09T21:26:31.579Z,100917.02
2023-05-09T21:28:58.792Z,100917.23
2023-05-09T21:31:25.906Z,100916.15
2023-05-09T21:33:53.093Z,100914.54
2023-05-09T21:36:20.208Z,100913.31
2023-05-09T21:38:47.305Z,100912.89
2023-05-09T21:41:14.753Z,100915.73
2023-05-09T21:43:42.073Z,100915.52
2023-05-09T21:46:10.178Z,100914.86
2023-05-09T21:48:37.722Z,100914.55
2023-05-09T21:51:05.189Z,100914.11
2023-05-09T21:53:32.451Z,100910.35
2023-05-09T21:55:59.502Z,100906.40
2023-05-09T21:58:26.552Z,100902.30
2023-05-09T22:00:53.709Z,100899.39
2023-05-09T22:03:21.076Z,100899.20
2023-05-09T22:05:48.210Z,100898.61
2023-05-09T22:08:15.266Z,100895.81
2023-05-09T22:10:42.440Z,100893.35
2023-05-09T22:13:09.582Z,100893.67
2023-05-09T22:15:36.894Z,100891.06
2023-05-09T22:18:04.292Z,100892.90
2023-05-09T22:20:32.641Z,100891.55
2023-05-09T22:22:59.787Z,100890.05
2023-05-09T22:25:26.948Z,100890.61
2023-05-09T22:27:54.959Z,100887.46
2023-05-09T22:30:22.201Z,100882.22
2023-05-09T22:32:49.564Z,100881.44
2023-05-09T22:35:16.680Z,100876.70
2023-05-09T22:37:43.837Z,100876.84
2023-05-09T22:40:11.855Z,100874.80
2023-05-09T22:42:38.924Z,100873.98
2023-05-09T22:45:06.687Z,100874.20
2023-05-09T22:47:33.873Z,100869.38
2023-05-09T22:50:00.938Z,100869.69
2023-05-09T22:52:28.047Z,100865.45
2023-05-09T22:54:55.304Z,100867.21
2023-05-09T22:57:23.996Z,100865.67
2023-05-09T22:59:51.322Z,100866.64
2023-05-09T23:02:18.558Z,100867.46
2023-05-09T23:04:45.734Z,100863.50
2023-05-09T23:07:13.445Z,100864.64
2023-05-09T23:09:41.042Z,100863.83
2023-05-09T23:12:09.861Z,100864.72
2023-05-09T23:14:37.011Z,100864.66
2023-05-09T23:17:04.157Z,100862.61
2023-05-09T23:19:31.206Z,100863.95
2023-05-09T23:21:59.383Z,100859.17
2023-05-09T23:24:26.519Z,100864.20
2023-05-09T23:26:54.558Z,100863.38
2023-05-09T23:29:21.876Z,100860.38
2023-05-09T23:31:49.021Z,100859.50
2023-05-09T23:34:16.572Z,100855.52
2023-05-09T23:36:43.818Z,100856.68
2023-05-09T23:39:10.876Z,100856.51
2023-05-09T23:41:38.311Z,100857.20
2023-05-09T23:44:07.820Z,100856.23
2023-05-09T23:46:34.949Z,100857.39
2023-05-09T23:49:02.068Z,100855.61
2023-05-09T23:51:29.185Z,100854.80
2023-05-09T23:53:56.248Z,100853.59
2023-05-09T23:56:23.356Z,100853.20
2023-05-09T23:58:51.132Z,100847.14
